KRQE

Window Rock Airport

Window Rock, Arizona, USA
METAR KRQE 220453Z AUTO 17005KT 10SM CLR 17/M11 A3017 RMK AO2 SLP074 T01721106
Observed Flight Rules
Jun-22 @ 04:53 UTC (44 minutes ago) Visual Flight Rules
Wind Visibility Clouds
170° at 5 knots 10 miles
  • Clear skies
Temperatures Readings
Current 17°C / 63°F
Dewpoint -11°C / 12°F
Humidity 14%
Altimeter 30.17" Hg
Pressure 1007.4 hPa
Elevation 2055
METAR KRQE 220453Z AUTO 17005KT 10SM CLR 17/M11 A3017 RMK AO2 SLP074 T01721106
Observed Flight Rules
Jun-22 @ 04:53 UTC
(44 minutes ago)
VFR
Wind Visibility
170° at 5 knots 10 miles
Clouds
  • Clear skies
Temperature Dewpoint
17°C / 63°F -11°C / 12°F
Humidity Altimeter Pressure
14% 30.17" Hg 1007.4 hPa